Monday, September 24, 2018, 9:55 PM GMT
Back to Local

CWZS, Amqui , Que.

Location: , , Canada Lat: 48.467
Local Time: 9:55 PM GMT (21:55 GMT) Lon: -67.433
Time Zone: GMT Elev: 544 ft

Show me the last for .
Show Coded

Time T Td Feel RH Dir Speed Gust Alt SLP Vis Weather Sky Remarks
2018-09-24 21:00 49 22 47 33 320° 6 - - 30.60 0 None
2018-09-24 20:00 49 22 46 33 340° 8 - - 30.59 0 None
2018-09-24 19:00 49 25 46 39 340° 8 - - 30.60 0 None
2018-09-24 18:00 49 28 45 45 340° 8 - - 30.60 0 None
2018-09-24 16:00 45 29 42 53 320° 7 - - 30.62 0 None
2018-09-24 15:00 43 28 38 56 320° 8 - - 30.62 0 None
2018-09-24 14:00 42 30 37 62 340° 8 - - 30.62 0 None
2018-09-24 13:00 39 30 30 68 320° 10 17 - 30.61 0 None
2018-09-24 12:00 38 30 30 74 330° 10 - - 30.59 0 None
2018-09-24 11:00 34 29 28 80 340° 7 - - 30.57 0 None
2018-09-24 10:00 31 27 28 85 340° 3 - - 30.53 0 None
2018-09-24 07:00 37 27 31 66 310° 9 - - 30.45 0 None
2018-09-24 06:00 37 26 31 64 300° 9 - - 30.43 0 None
2018-09-24 05:00 33 29 - 82 320° 2 - - 30.41 0 None
2018-09-24 04:00 34 29 - 82 10° 1 - - 30.40 0 None
2018-09-24 03:00 33 27 - 78 350° 2 - - 30.39 0 None
2018-09-24 02:00 33 27 - 77 40° 1 - - 30.36 0 None
2018-09-24 01:00 33 28 - 80 140° 2 - - 30.33 0 None
2018-09-24 00:00 37 26 33 65 290° 5 - - 30.31 0 None
2018-09-23 23:00 38 26 36 59 280° 3 - - 30.27 0 None
2018-09-23 22:00 43 22 38 44 300° 7 - - 30.25 0 None

Support USWX by starting your Amazon purchase here.